-4.44C
пасмурно
пасмурно
Дата и времяТемператураДавление, мм рт.ст.Влажность, %Осадки
МинимумМаксимум
17.04.2021 08:00-5.08C-4.33C76381пасмурно
17.04.2021 11:00-4.17C-3.53C76273пасмурно
17.04.2021 14:00-3.19C-3.19C76163пасмурно
17.04.2021 17:00-4.19C-4.19C75967пасмурно
17.04.2021 20:00-8.04C-8.04C75975пасмурно
17.04.2021 23:00-10.7C-10.7C75976пасмурно
18.04.2021 02:00-12.68C-12.68C76180пасмурно
18.04.2021 05:00-15.13C-15.13C76376пасмурно
18.04.2021 08:00-14.86C-14.86C76566переменная облачность
18.04.2021 11:00-12.29C-12.29C76664небольшая облачность
18.04.2021 14:00-9.85C-9.85C76759облачно с прояснениями
18.04.2021 17:00-9.8C-9.8C76863пасмурно
18.04.2021 20:00-10.98C-10.98C76972пасмурно
18.04.2021 23:00-11.82C-11.82C76977пасмурно
19.04.2021 02:00-12.57C-12.57C77080пасмурно
19.04.2021 05:00-14.02C-14.02C77181пасмурно
19.04.2021 08:00-12.76C-12.76C77269облачно с прояснениями
19.04.2021 11:00-9.88C-9.88C77361переменная облачность
19.04.2021 14:00-7.56C-7.56C77358пасмурно
19.04.2021 17:00-6.34C-6.34C77258пасмурно
19.04.2021 20:00-7.22C-7.22C77174пасмурно
19.04.2021 23:00-7.12C-7.12C77078пасмурно
20.04.2021 02:00-6.95C-6.95C76793небольшой снег
20.04.2021 05:00-5.99C-5.99C76594небольшой снег
20.04.2021 08:00-4.41C-4.41C76293небольшой снег
20.04.2021 11:00-1.49C-1.49C76195небольшой снег
20.04.2021 14:000.76C0.76C75999небольшой снег
20.04.2021 17:000.42C0.42C75997небольшой снег
20.04.2021 20:000.15C0.15C76096небольшой снег
20.04.2021 23:00-0.92C-0.92C76291небольшой снег
21.04.2021 02:00-2.26C-2.26C76593пасмурно
21.04.2021 05:00-4.31C-4.31C76892пасмурно
21.04.2021 08:00-4.28C-4.28C77188пасмурно
21.04.2021 11:00-2.03C-2.03C77382облачно с прояснениями
21.04.2021 14:00-0.83C-0.83C77473небольшая облачность
21.04.2021 17:00-0.67C-0.67C77671небольшая облачность
21.04.2021 20:00-3.12C-3.12C77783переменная облачность
21.04.2021 23:00-2.95C-2.95C77782облачно с прояснениями
22.04.2021 02:00-2.62C-2.62C77885пасмурно
22.04.2021 05:00-3.1C-3.1C77989пасмурно
Дата и время наблюдения: 17.04.2021 05:47:17